createdAt,value
2023-05-11T00:00:08.614Z,1.25
2023-05-11T00:02:36.214Z,1.63
2023-05-11T00:05:02.647Z,1.00
2023-05-11T00:07:28.993Z,3.28
2023-05-11T00:09:55.422Z,2.50
2023-05-11T00:12:21.805Z,1.48
2023-05-11T00:14:48.164Z,3.30
2023-05-11T00:17:14.506Z,1.63
2023-05-11T00:19:40.941Z,3.08
2023-05-11T00:22:07.573Z,1.55
2023-05-11T00:24:33.921Z,3.28
2023-05-11T00:27:00.768Z,1.52
2023-05-11T00:29:27.119Z,4.50
2023-05-11T00:31:53.494Z,3.28
2023-05-11T00:34:19.913Z,1.60
2023-05-11T00:36:46.273Z,3.65
2023-05-11T00:39:13.573Z,4.20
2023-05-11T00:41:39.907Z,4.47
2023-05-11T00:44:06.591Z,2.15
2023-05-11T00:46:33.442Z,3.33
2023-05-11T00:48:59.912Z,3.13
2023-05-11T00:51:27.779Z,1.83
2023-05-11T00:53:54.229Z,2.08
2023-05-11T00:56:21.355Z,1.75
2023-05-11T00:58:48.604Z,3.17
2023-05-11T01:01:17.741Z,4.07
2023-05-11T01:03:46.049Z,2.08
2023-05-11T01:06:39.863Z,1.75
2023-05-11T01:09:15.681Z,1.92
2023-05-11T01:11:48.979Z,1.90
2023-05-11T01:14:32.125Z,1.40
2023-05-11T01:17:05.778Z,3.30
2023-05-11T01:19:46.872Z,5.75
2023-05-11T01:22:33.703Z,3.30
2023-05-11T01:25:25.666Z,2.33
2023-05-11T01:28:23.164Z,1.92
2023-05-11T01:31:02.456Z,1.33
2023-05-11T01:33:33.088Z,2.25
2023-05-11T01:36:10.780Z,2.80
2023-05-11T01:38:45.687Z,1.70
2023-05-11T01:41:17.987Z,1.73
2023-05-11T01:43:47.254Z,4.30
2023-05-11T01:46:15.774Z,3.25
2023-05-11T01:48:46.631Z,1.95
2023-05-11T01:51:15.817Z,2.00
2023-05-11T01:53:44.358Z,1.20
2023-05-11T01:56:11.622Z,14.13
2023-05-11T01:58:41.747Z,3.72
2023-05-11T02:01:10.135Z,3.75
2023-05-11T02:03:38.244Z,1.77
2023-05-11T02:06:06.637Z,1.73
2023-05-11T02:08:35.967Z,3.55
2023-05-11T02:11:04.244Z,1.42
2023-05-11T02:13:34.575Z,3.35
2023-05-11T02:16:01.564Z,2.05
2023-05-11T02:18:29.443Z,4.30
2023-05-11T02:21:00.070Z,3.47
2023-05-11T02:23:27.691Z,2.15
2023-05-11T02:25:55.265Z,1.52
2023-05-11T02:28:22.033Z,1.42
2023-05-11T02:30:52.231Z,2.08
2023-05-11T02:33:24.589Z,6.28
2023-05-11T02:35:55.969Z,2.55
2023-05-11T02:38:33.469Z,1.90
2023-05-11T02:41:05.969Z,3.28
2023-05-11T02:43:36.905Z,8.18
2023-05-11T02:46:06.870Z,1.83
2023-05-11T02:48:40.122Z,2.58
2023-05-11T02:51:09.980Z,3.03
2023-05-11T02:53:45.344Z,6.25
2023-05-11T02:56:12.223Z,3.53
2023-05-11T02:58:39.043Z,2.65
2023-05-11T03:01:17.537Z,4.57
2023-05-11T03:03:44.401Z,6.45
2023-05-11T03:06:10.918Z,4.70
2023-05-11T03:08:37.684Z,5.43
2023-05-11T03:11:05.058Z,2.10
2023-05-11T03:13:32.683Z,3.75
2023-05-11T03:16:02.451Z,2.60
2023-05-11T03:18:31.910Z,3.67
2023-05-11T03:21:00.523Z,2.53
2023-05-11T03:23:27.950Z,3.50
2023-05-11T03:25:56.029Z,2.28
2023-05-11T03:28:24.016Z,3.08
2023-05-11T03:30:58.758Z,2.58
2023-05-11T03:33:25.202Z,2.03
2023-05-11T03:35:53.969Z,3.05
2023-05-11T03:38:23.547Z,2.03
2023-05-11T03:40:53.473Z,2.22
2023-05-11T03:43:21.770Z,1.95
2023-05-11T03:45:55.581Z,3.00
2023-05-11T03:48:23.456Z,5.45
2023-05-11T03:50:51.837Z,2.55
2023-05-11T03:53:18.895Z,1.85
2023-05-11T03:55:45.404Z,2.53
2023-05-11T03:58:11.848Z,2.70
2023-05-11T04:00:39.802Z,2.50
2023-05-11T04:03:07.252Z,5.22
2023-05-11T04:05:33.788Z,6.57
2023-05-11T04:08:03.761Z,4.50
2023-05-11T04:10:30.198Z,2.78
2023-05-11T04:12:56.672Z,2.72
2023-05-11T04:15:23.032Z,3.33
2023-05-11T04:17:49.470Z,3.33
2023-05-11T04:20:16.141Z,3.15
2023-05-11T04:22:43.900Z,3.25
2023-05-11T04:25:10.341Z,2.83
2023-05-11T04:27:37.762Z,2.10
2023-05-11T04:30:04.571Z,2.72
2023-05-11T04:32:31.790Z,3.75
2023-05-11T04:34:58.285Z,2.95
2023-05-11T04:37:26.966Z,4.38
2023-05-11T04:39:53.992Z,2.15
2023-05-11T04:42:20.770Z,2.92
2023-05-11T04:44:54.360Z,3.83
2023-05-11T04:47:21.247Z,4.75
2023-05-11T04:49:48.541Z,4.20
2023-05-11T04:52:15.871Z,4.50
2023-05-11T04:54:45.120Z,4.63
2023-05-11T04:57:11.551Z,3.45
2023-05-11T04:59:38.023Z,3.22
2023-05-11T05:02:04.495Z,3.70
2023-05-11T05:04:30.906Z,4.50
2023-05-11T05:06:57.333Z,3.65
2023-05-11T05:09:23.665Z,4.68
2023-05-11T05:11:50.172Z,5.00
2023-05-11T05:14:16.584Z,7.18
2023-05-11T05:16:43.210Z,4.13
2023-05-11T05:19:10.133Z,5.03
2023-05-11T05:21:37.399Z,5.38
2023-05-11T05:24:04.334Z,3.05
2023-05-11T05:26:30.825Z,2.42
2023-05-11T05:28:57.546Z,3.63
2023-05-11T05:31:24.964Z,3.88
2023-05-11T05:33:52.246Z,2.97
2023-05-11T05:36:18.669Z,5.50
2023-05-11T05:38:45.160Z,3.03
2023-05-11T05:41:11.585Z,4.68
2023-05-11T05:43:40.822Z,3.78
2023-05-11T05:46:07.323Z,3.33
2023-05-11T05:48:33.824Z,8.57
2023-05-11T05:51:00.288Z,3.38
2023-05-11T05:53:27.709Z,5.22
2023-05-11T05:55:54.703Z,4.68
2023-05-11T05:58:21.120Z,5.15
2023-05-11T06:00:47.587Z,4.63
2023-05-11T06:03:14.005Z,5.20
2023-05-11T06:05:40.961Z,4.03
2023-05-11T06:08:25.797Z,7.30
2023-05-11T06:10:52.245Z,4.35
2023-05-11T06:13:18.819Z,4.45
2023-05-11T06:15:45.327Z,4.25
2023-05-11T06:18:19.392Z,3.47
2023-05-11T06:20:46.002Z,6.28
2023-05-11T06:23:14.146Z,3.78
2023-05-11T06:25:42.545Z,4.25
2023-05-11T06:28:09.308Z,7.47
2023-05-11T06:30:36.933Z,5.40
2023-05-11T06:33:06.013Z,5.22
2023-05-11T06:35:32.444Z,5.85
2023-05-11T06:37:59.157Z,3.72
2023-05-11T06:40:25.801Z,5.13
2023-05-11T06:42:52.209Z,6.25
2023-05-11T06:45:18.611Z,4.50
2023-05-11T06:47:45.274Z,6.05
2023-05-11T06:50:11.815Z,6.28
2023-05-11T06:52:38.240Z,4.13
2023-05-11T06:55:05.056Z,4.15
2023-05-11T06:57:31.472Z,8.35
2023-05-11T06:59:57.905Z,4.97
2023-05-11T07:02:24.297Z,5.63
2023-05-11T07:04:50.883Z,5.65
2023-05-11T07:07:17.300Z,6.93
2023-05-11T07:09:43.670Z,5.80
2023-05-11T07:12:10.123Z,4.85
2023-05-11T07:18:01.422Z,8.90
2023-05-11T07:20:28.320Z,7.40
2023-05-11T07:23:01.180Z,6.00
2023-05-11T07:25:28.059Z,6.47
2023-05-11T07:27:54.472Z,7.35
2023-05-11T07:30:21.158Z,6.65
2023-05-11T07:32:48.110Z,5.78
2023-05-11T07:35:17.703Z,7.28
2023-05-11T07:37:44.217Z,5.60
2023-05-11T07:40:11.088Z,5.47
2023-05-11T07:42:37.420Z,5.82
2023-05-11T07:46:07.765Z,5.43
2023-05-11T07:48:34.130Z,5.88
2023-05-11T07:51:01.482Z,6.78
2023-05-11T07:53:27.951Z,4.88
2023-05-11T07:55:54.389Z,5.20
2023-05-11T07:58:20.829Z,5.50
2023-05-11T08:00:47.306Z,3.70
2023-05-11T08:03:14.425Z,4.43
2023-05-11T08:05:40.891Z,3.95
2023-05-11T08:08:07.387Z,6.15
2023-05-11T08:10:34.894Z,4.93
2023-05-11T08:13:01.293Z,4.85
2023-05-11T08:15:28.040Z,5.47
2023-05-11T08:17:54.809Z,5.22
2023-05-11T08:20:21.226Z,4.40
2023-05-11T08:22:47.873Z,4.30
2023-05-11T08:25:14.366Z,3.97
2023-05-11T08:27:40.799Z,4.35
2023-05-11T08:30:09.496Z,5.38
2023-05-11T08:32:54.515Z,5.32
2023-05-11T08:35:24.774Z,4.32
2023-05-11T08:37:51.188Z,4.47
2023-05-11T08:40:18.901Z,5.32
2023-05-11T08:42:46.830Z,2.60
2023-05-11T08:45:13.548Z,3.00
2023-05-11T08:47:40.143Z,3.35
2023-05-11T08:50:07.546Z,3.22
2023-05-11T08:52:34.398Z,4.25
2023-05-11T08:55:00.979Z,3.60
2023-05-11T08:57:30.729Z,3.50
2023-05-11T08:59:58.031Z,4.95
2023-05-11T09:02:25.326Z,3.88
2023-05-11T09:04:52.391Z,4.40
2023-05-11T09:07:19.633Z,3.75
2023-05-11T09:09:47.518Z,2.75
2023-05-11T09:12:14.286Z,3.70
2023-05-11T09:14:40.792Z,3.53
2023-05-11T09:17:07.332Z,4.05
2023-05-11T09:19:33.901Z,4.70
2023-05-11T09:22:00.502Z,3.35
2023-05-11T09:24:27.795Z,4.15
2023-05-11T09:27:10.252Z,3.78
2023-05-11T09:29:36.922Z,3.60
2023-05-11T09:32:03.979Z,6.22
2023-05-11T09:34:30.398Z,3.92
2023-05-11T09:36:57.201Z,5.57
2023-05-11T09:39:37.836Z,4.30
2023-05-11T09:42:13.184Z,6.78
2023-05-11T09:44:41.525Z,3.83
2023-05-11T09:47:13.063Z,4.15
2023-05-11T09:49:43.144Z,3.53
2023-05-11T09:52:11.406Z,5.18
2023-05-11T09:54:46.244Z,4.93
2023-05-11T09:57:29.755Z,4.60
2023-05-11T09:59:58.059Z,5.05
2023-05-11T10:02:30.021Z,4.60
2023-05-11T10:04:58.321Z,4.55
2023-05-11T10:07:33.153Z,4.78
2023-05-11T10:10:05.267Z,4.50
2023-05-11T10:12:38.198Z,5.03
2023-05-11T10:17:36.781Z,4.80
2023-05-11T10:20:05.100Z,5.18
2023-05-11T10:22:31.915Z,4.72
2023-05-11T10:24:59.628Z,4.70
2023-05-11T10:27:27.999Z,4.85
2023-05-11T10:29:54.594Z,5.72
2023-05-11T10:32:21.577Z,5.90
2023-05-11T10:34:48.480Z,3.75
2023-05-11T10:37:15.571Z,4.43
2023-05-11T10:39:44.074Z,4.30
2023-05-11T10:42:29.172Z,3.95
2023-05-11T10:45:24.131Z,4.45
2023-05-11T10:48:11.858Z,4.10
2023-05-11T10:50:52.079Z,3.13
2023-05-11T10:53:24.302Z,4.07
2023-05-11T10:55:59.356Z,4.60
2023-05-11T10:59:03.186Z,3.20
2023-05-11T11:01:40.504Z,3.58
2023-05-11T11:04:12.229Z,3.58
2023-05-11T11:06:42.228Z,5.00
2023-05-11T11:09:13.341Z,3.03
2023-05-11T11:11:42.395Z,4.70
2023-05-11T11:14:10.243Z,3.72
2023-05-11T11:16:37.838Z,3.63
2023-05-11T11:19:29.488Z,3.72
2023-05-11T11:22:05.535Z,3.97
2023-05-11T11:24:40.924Z,4.68
2023-05-11T11:27:09.067Z,3.17
2023-05-11T11:29:36.866Z,4.07
2023-05-11T11:32:21.715Z,3.33
2023-05-11T11:34:48.893Z,4.20
2023-05-11T11:37:16.555Z,4.40
2023-05-11T11:39:42.994Z,4.25
2023-05-11T11:42:11.365Z,4.50
2023-05-11T11:44:39.389Z,4.40
2023-05-11T11:47:15.624Z,3.65
2023-05-11T11:49:44.434Z,4.35
2023-05-11T11:52:32.226Z,6.10
2023-05-11T11:55:00.163Z,3.70
2023-05-11T11:57:29.625Z,4.80
2023-05-11T11:59:56.409Z,4.93
2023-05-11T12:02:23.347Z,4.35
2023-05-11T12:04:56.074Z,4.75
2023-05-11T12:07:24.715Z,4.75
2023-05-11T12:09:52.766Z,5.82
2023-05-11T12:12:20.789Z,4.10
2023-05-11T12:14:50.921Z,4.47
2023-05-11T12:17:25.770Z,7.57
2023-05-11T12:19:52.331Z,6.03
2023-05-11T12:22:23.768Z,5.78
2023-05-11T12:24:50.582Z,6.63
2023-05-11T12:27:18.879Z,6.50
2023-05-11T12:29:50.038Z,5.63
2023-05-11T12:32:29.218Z,6.65
2023-05-11T12:35:01.294Z,5.85
2023-05-11T12:37:29.378Z,8.35
2023-05-11T12:39:57.629Z,6.38
2023-05-11T12:42:24.336Z,5.95
2023-05-11T12:44:51.492Z,5.72
2023-05-11T12:47:18.180Z,6.78
2023-05-11T12:49:44.884Z,5.97
2023-05-11T12:52:13.863Z,5.25
2023-05-11T12:54:51.130Z,6.07
2023-05-11T12:57:26.357Z,5.93
2023-05-11T13:00:25.573Z,7.68
2023-05-11T13:02:54.056Z,6.45
2023-05-11T13:05:26.303Z,7.18
2023-05-11T13:07:59.587Z,8.40
2023-05-11T13:10:29.390Z,8.40
2023-05-11T13:12:56.331Z,7.40
2023-05-11T13:15:25.053Z,9.38
2023-05-11T13:17:59.273Z,10.10
2023-05-11T13:20:32.261Z,9.75
2023-05-11T13:23:10.423Z,10.68
2023-05-11T13:25:45.739Z,7.68
2023-05-11T13:28:14.457Z,9.27
2023-05-11T13:30:41.306Z,10.43
2023-05-11T13:33:07.834Z,10.02
2023-05-11T13:35:38.988Z,8.70
2023-05-11T13:38:05.761Z,9.50
2023-05-11T13:40:32.361Z,8.85
2023-05-11T13:42:58.789Z,9.70
2023-05-11T13:45:25.311Z,9.60
2023-05-11T13:47:52.326Z,9.85
2023-05-11T13:50:18.749Z,9.07
2023-05-11T13:52:45.157Z,10.65
2023-05-11T13:55:11.629Z,9.77
2023-05-11T13:57:38.108Z,9.82
2023-05-11T14:00:05.418Z,9.98
2023-05-11T14:02:38.321Z,9.63
2023-05-11T14:05:05.109Z,11.48
2023-05-11T14:07:45.739Z,9.93
2023-05-11T14:10:14.053Z,10.18
2023-05-11T14:12:41.085Z,9.23
2023-05-11T14:15:08.352Z,10.52
2023-05-11T14:17:34.888Z,11.20
2023-05-11T14:20:01.501Z,12.48
2023-05-11T14:22:30.548Z,9.32
2023-05-11T14:24:56.929Z,8.45
2023-05-11T14:27:23.725Z,8.40
2023-05-11T14:29:52.125Z,10.13
2023-05-11T14:32:19.312Z,8.50
2023-05-11T14:34:46.215Z,9.45
2023-05-11T14:37:13.137Z,9.98
2023-05-11T14:39:40.978Z,9.95
2023-05-11T14:42:07.774Z,9.68
2023-05-11T14:44:34.200Z,10.43
2023-05-11T14:47:00.661Z,10.13
2023-05-11T14:49:27.159Z,9.05
2023-05-11T14:51:53.509Z,9.85
2023-05-11T14:54:19.958Z,12.75
2023-05-11T14:56:51.251Z,8.70
2023-05-11T14:59:17.701Z,9.75
2023-05-11T15:01:44.127Z,10.38
2023-05-11T15:04:10.667Z,10.10
2023-05-11T15:06:37.445Z,9.38
2023-05-11T15:09:04.151Z,6.93
2023-05-11T15:11:30.600Z,7.90
2023-05-11T15:13:57.052Z,7.93
2023-05-11T15:16:23.481Z,8.30
2023-05-11T15:18:50.024Z,8.20
2023-05-11T15:21:16.522Z,9.05
2023-05-11T15:23:42.994Z,8.15
2023-05-11T15:26:09.852Z,7.90
2023-05-11T15:28:36.272Z,10.60
2023-05-11T15:31:02.658Z,9.50
2023-05-11T15:33:29.260Z,9.02
2023-05-11T15:35:55.750Z,14.80
2023-05-11T15:38:22.242Z,7.50
2023-05-11T15:40:48.783Z,10.10
2023-05-11T15:43:15.717Z,10.23
2023-05-11T15:45:42.195Z,8.27
2023-05-11T15:48:08.770Z,8.82
2023-05-11T15:50:35.935Z,7.72
2023-05-11T15:53:02.617Z,9.02
2023-05-11T15:55:29.097Z,8.23
2023-05-11T15:57:55.618Z,11.75
2023-05-11T16:00:22.164Z,8.75
2023-05-11T16:02:49.328Z,9.27
2023-05-11T16:05:15.954Z,9.70
2023-05-11T16:07:42.478Z,6.75
2023-05-11T16:10:09.282Z,9.93
2023-05-11T16:12:35.667Z,9.25
2023-05-11T16:15:02.080Z,7.88
2023-05-11T16:17:28.512Z,8.10
2023-05-11T16:19:55.058Z,8.13
2023-05-11T16:22:22.316Z,7.35
2023-05-11T16:24:48.685Z,10.23
2023-05-11T16:27:15.370Z,7.85
2023-05-11T16:29:41.761Z,8.25
2023-05-11T16:32:08.212Z,10.13
2023-05-11T16:34:35.219Z,8.27
2023-05-11T16:37:01.785Z,8.07
2023-05-11T16:39:28.200Z,9.48
2023-05-11T16:41:54.787Z,7.28
2023-05-11T16:44:21.226Z,7.85
2023-05-11T16:46:47.856Z,10.05
2023-05-11T16:49:14.335Z,8.00
2023-05-11T16:51:40.792Z,6.60
2023-05-11T16:54:07.452Z,6.25
2023-05-11T16:56:33.931Z,6.10
2023-05-11T16:59:00.338Z,6.00
2023-05-11T17:01:27.007Z,5.90
2023-05-11T17:03:53.724Z,6.05
2023-05-11T17:06:23.681Z,6.22
2023-05-11T17:08:50.461Z,7.53
2023-05-11T17:11:17.057Z,8.60
2023-05-11T17:13:43.472Z,7.38
2023-05-11T17:16:09.924Z,7.38
2023-05-11T17:18:36.409Z,6.40
2023-05-11T17:21:02.899Z,9.05
2023-05-11T17:23:29.262Z,5.45
2023-05-11T17:25:55.690Z,7.55
2023-05-11T17:28:22.300Z,9.50
2023-05-11T17:30:52.644Z,6.72
2023-05-11T17:33:19.685Z,7.75
2023-05-11T17:35:46.344Z,7.15
2023-05-11T17:38:12.752Z,7.40
2023-05-11T17:40:39.207Z,6.35
2023-05-11T17:43:05.644Z,7.90
2023-05-11T17:45:32.098Z,7.30
2023-05-11T17:47:58.501Z,7.18
2023-05-11T17:50:25.138Z,6.70
2023-05-11T17:52:51.571Z,7.80
2023-05-11T17:55:19.030Z,9.85
2023-05-11T17:57:45.715Z,8.18
2023-05-11T18:00:12.649Z,7.18
2023-05-11T18:02:39.262Z,7.40
2023-05-11T18:05:06.793Z,7.75
2023-05-11T18:07:33.219Z,7.20
2023-05-11T18:09:59.963Z,7.93
2023-05-11T18:12:26.510Z,8.38
2023-05-11T18:14:52.905Z,9.77
2023-05-11T18:17:19.283Z,6.53
2023-05-11T18:19:45.686Z,11.55
2023-05-11T18:22:12.271Z,9.50
2023-05-11T18:24:38.644Z,9.05
2023-05-11T18:27:05.282Z,9.02
2023-05-11T18:29:31.687Z,7.15
2023-05-11T18:31:58.186Z,7.57
2023-05-11T18:34:24.618Z,7.28
2023-05-11T18:36:51.129Z,8.27
2023-05-11T18:39:17.678Z,11.10
2023-05-11T18:41:44.077Z,9.02
2023-05-11T18:44:10.688Z,8.07
2023-05-11T18:46:37.178Z,8.27
2023-05-11T18:49:03.848Z,8.55
2023-05-11T18:51:30.292Z,7.05
2023-05-11T18:53:56.760Z,8.63
2023-05-11T18:56:23.231Z,9.48
2023-05-11T18:58:50.324Z,7.88
2023-05-11T19:01:17.993Z,8.88
2023-05-11T19:03:44.936Z,8.38
2023-05-11T19:06:11.804Z,9.23
2023-05-11T19:08:38.262Z,8.30
2023-05-11T19:11:09.794Z,8.50
2023-05-11T19:13:36.761Z,9.57
2023-05-11T19:16:04.286Z,11.43
2023-05-11T19:18:32.175Z,12.57
2023-05-11T19:20:58.645Z,9.77
2023-05-11T19:23:25.262Z,9.88
2023-05-11T19:25:51.723Z,12.00
2023-05-11T19:28:18.178Z,10.27
2023-05-11T19:30:44.589Z,10.52
2023-05-11T19:33:11.635Z,9.70
2023-05-11T19:35:38.436Z,9.43
2023-05-11T19:38:06.207Z,10.18
2023-05-11T19:43:06.018Z,8.25
2023-05-11T19:45:33.121Z,10.50
2023-05-11T19:47:59.905Z,9.50
2023-05-11T19:50:27.565Z,9.25
2023-05-11T19:52:54.511Z,9.52
2023-05-11T19:55:21.343Z,10.88
2023-05-11T19:57:48.272Z,9.80
2023-05-11T20:00:17.973Z,11.75
2023-05-11T20:02:44.964Z,11.05
2023-05-11T20:05:11.417Z,11.60
2023-05-11T20:07:38.754Z,11.35
2023-05-11T20:10:05.681Z,9.95
2023-05-11T20:12:32.068Z,9.75
2023-05-11T20:14:58.476Z,10.52
2023-05-11T20:17:24.901Z,11.90
2023-05-11T20:19:51.340Z,10.55
2023-05-11T20:22:17.858Z,10.45
2023-05-11T20:24:44.224Z,10.02
2023-05-11T20:27:11.224Z,11.10
2023-05-11T20:29:40.106Z,9.15
2023-05-11T20:32:06.925Z,10.77
2023-05-11T20:34:33.508Z,11.65
2023-05-11T20:36:59.929Z,10.73
2023-05-11T20:39:28.120Z,11.75
2023-05-11T20:41:54.572Z,12.18
2023-05-11T20:44:21.322Z,10.18
2023-05-11T20:46:47.744Z,12.30
2023-05-11T20:49:22.148Z,11.40
2023-05-11T20:51:54.131Z,15.68
2023-05-11T20:54:22.416Z,14.85
2023-05-11T20:56:49.675Z,14.90
2023-05-11T21:01:45.607Z,13.85
2023-05-11T21:04:12.004Z,12.38
2023-05-11T21:06:39.600Z,12.73
2023-05-11T21:09:06.317Z,19.98
2023-05-11T21:11:32.700Z,12.20
2023-05-11T21:13:59.048Z,13.68
2023-05-11T21:16:25.497Z,13.43
2023-05-11T21:18:53.313Z,11.13
2023-05-11T21:21:19.870Z,12.85
2023-05-11T21:23:46.227Z,14.13
2023-05-11T21:26:12.652Z,14.98
2023-05-11T21:28:40.435Z,17.85
2023-05-11T21:31:07.370Z,13.27
2023-05-11T21:33:34.632Z,14.68
2023-05-11T21:36:01.074Z,11.63
2023-05-11T21:38:27.575Z,13.10
2023-05-11T21:40:55.025Z,12.32
2023-05-11T21:43:21.991Z,10.68
2023-05-11T21:45:49.827Z,10.63
2023-05-11T21:48:16.841Z,9.27
2023-05-11T21:50:43.772Z,9.13
2023-05-11T21:53:10.720Z,9.43
2023-05-11T21:55:37.191Z,7.90
2023-05-11T21:58:03.541Z,7.63
2023-05-11T22:00:30.501Z,8.60
2023-05-11T22:02:57.053Z,7.10
2023-05-11T22:05:23.560Z,7.53
2023-05-11T22:07:52.395Z,6.90
2023-05-11T22:10:21.037Z,7.53
2023-05-11T22:12:47.551Z,7.43
2023-05-11T22:15:14.204Z,6.50
2023-05-11T22:17:40.643Z,7.28
2023-05-11T22:20:08.167Z,5.97
2023-05-11T22:22:35.574Z,4.72
2023-05-11T22:25:02.288Z,7.50
2023-05-11T22:27:29.686Z,5.25
2023-05-11T22:29:56.208Z,5.32
2023-05-11T22:32:22.695Z,5.22
2023-05-11T22:34:59.608Z,5.03
2023-05-11T22:37:26.809Z,6.45
2023-05-11T22:39:54.063Z,5.60
2023-05-11T22:42:21.780Z,5.68
2023-05-11T22:44:48.444Z,7.35
2023-05-11T22:47:14.850Z,9.43
2023-05-11T22:49:41.628Z,9.15
2023-05-11T22:52:08.238Z,5.72
2023-05-11T22:54:36.545Z,5.82
2023-05-11T22:57:03.507Z,5.45
2023-05-11T22:59:34.171Z,5.95
2023-05-11T23:02:04.388Z,6.63
2023-05-11T23:04:34.555Z,6.75
2023-05-11T23:07:01.025Z,8.00
2023-05-11T23:09:27.526Z,8.23
2023-05-11T23:11:54.270Z,7.05
2023-05-11T23:14:20.946Z,6.28
2023-05-11T23:16:47.463Z,7.90
2023-05-11T23:19:13.979Z,7.80
2023-05-11T23:21:40.428Z,8.70
2023-05-11T23:24:06.945Z,7.95
2023-05-11T23:26:33.951Z,7.45
2023-05-11T23:29:00.469Z,7.38
2023-05-11T23:31:28.411Z,6.72
2023-05-11T23:33:55.169Z,6.70
2023-05-11T23:36:21.633Z,7.40
2023-05-11T23:38:48.004Z,7.22
2023-05-11T23:41:14.543Z,7.47
2023-05-11T23:43:41.132Z,8.10
2023-05-11T23:46:07.559Z,8.32
2023-05-11T23:48:34.039Z,7.72
2023-05-11T23:51:00.475Z,9.10
2023-05-11T23:53:26.934Z,10.77
2023-05-11T23:55:53.363Z,7.70
2023-05-11T23:58:20.053Z,7.32
